sensor_id;sensor_type;location;lat;lon;timestamp;P1;durP1;ratioP1;P2;durP2;ratioP2
67162;SDS011;54092;53.088;8.850;2022-12-20T00:01:28;11.15;;;5.68;;
67162;SDS011;54092;53.088;8.850;2022-12-20T00:03:55;13.93;;;6.07;;
67162;SDS011;54092;53.088;8.850;2022-12-20T00:06:22;8.90;;;5.28;;
67162;SDS011;54092;53.088;8.850;2022-12-20T00:08:53;11.15;;;6.05;;
67162;SDS011;54092;53.088;8.850;2022-12-20T00:11:19;10.30;;;5.85;;
67162;SDS011;54092;53.088;8.850;2022-12-20T00:13:46;11.48;;;5.90;;
67162;SDS011;54092;53.088;8.850;2022-12-20T00:16:13;8.82;;;5.13;;
67162;SDS011;54092;53.088;8.850;2022-12-20T00:18:41;11.18;;;5.35;;
67162;SDS011;54092;53.088;8.850;2022-12-20T00:21:08;14.80;;;6.60;;
67162;SDS011;54092;53.088;8.850;2022-12-20T00:23:35;11.35;;;6.07;;
67162;SDS011;54092;53.088;8.850;2022-12-20T00:26:02;9.70;;;5.45;;
67162;SDS011;54092;53.088;8.850;2022-12-20T00:28:30;10.73;;;5.88;;
67162;SDS011;54092;53.088;8.850;2022-12-20T00:30:56;11.68;;;4.95;;
67162;SDS011;54092;53.088;8.850;2022-12-20T00:33:22;14.55;;;5.65;;
67162;SDS011;54092;53.088;8.850;2022-12-20T00:35:48;14.32;;;6.10;;
67162;SDS011;54092;53.088;8.850;2022-12-20T00:38:13;12.88;;;5.20;;
67162;SDS011;54092;53.088;8.850;2022-12-20T00:40:39;9.48;;;5.45;;
67162;SDS011;54092;53.088;8.850;2022-12-20T00:43:04;10.77;;;6.15;;
67162;SDS011;54092;53.088;8.850;2022-12-20T00:45:30;9.65;;;5.57;;
67162;SDS011;54092;53.088;8.850;2022-12-20T00:47:55;11.98;;;6.00;;
67162;SDS011;54092;53.088;8.850;2022-12-20T00:50:21;11.88;;;5.95;;
67162;SDS011;54092;53.088;8.850;2022-12-20T00:52:46;9.40;;;5.40;;
67162;SDS011;54092;53.088;8.850;2022-12-20T00:55:12;8.25;;;4.82;;
67162;SDS011;54092;53.088;8.850;2022-12-20T00:57:37;11.85;;;6.75;;
67162;SDS011;54092;53.088;8.850;2022-12-20T01:00:03;9.63;;;5.43;;
67162;SDS011;54092;53.088;8.850;2022-12-20T01:02:29;12.00;;;5.78;;
67162;SDS011;54092;53.088;8.850;2022-12-20T01:04:55;9.75;;;5.85;;
67162;SDS011;54092;53.088;8.850;2022-12-20T01:07:20;10.50;;;5.47;;
67162;SDS011;54092;53.088;8.850;2022-12-20T01:09:47;10.32;;;5.75;;
67162;SDS011;54092;53.088;8.850;2022-12-20T01:12:13;9.68;;;5.53;;
67162;SDS011;54092;53.088;8.850;2022-12-20T01:14:38;10.88;;;5.10;;
67162;SDS011;54092;53.088;8.850;2022-12-20T01:17:04;9.95;;;5.40;;
67162;SDS011;54092;53.088;8.850;2022-12-20T01:19:30;10.02;;;5.22;;
67162;SDS011;54092;53.088;8.850;2022-12-20T01:21:55;11.23;;;5.40;;
67162;SDS011;54092;53.088;8.850;2022-12-20T01:24:21;10.70;;;5.75;;
67162;SDS011;54092;53.088;8.850;2022-12-20T01:26:46;10.20;;;5.45;;
67162;SDS011;54092;53.088;8.850;2022-12-20T01:29:12;8.98;;;5.35;;
67162;SDS011;54092;53.088;8.850;2022-12-20T01:31:38;10.90;;;5.60;;
67162;SDS011;54092;53.088;8.850;2022-12-20T01:34:04;10.40;;;5.10;;
67162;SDS011;54092;53.088;8.850;2022-12-20T01:36:31;10.43;;;5.32;;
67162;SDS011;54092;53.088;8.850;2022-12-20T01:39:16;13.05;;;5.93;;
67162;SDS011;54092;53.088;8.850;2022-12-20T01:41:42;8.70;;;5.10;;
67162;SDS011;54092;53.088;8.850;2022-12-20T01:46:40;9.18;;;5.60;;
67162;SDS011;54092;53.088;8.850;2022-12-20T01:51:52;12.93;;;5.57;;
67162;SDS011;54092;53.088;8.850;2022-12-20T01:54:25;8.82;;;5.00;;
67162;SDS011;54092;53.088;8.850;2022-12-20T01:56:56;9.02;;;4.90;;
67162;SDS011;54092;53.088;8.850;2022-12-20T02:01:51;9.38;;;5.25;;
67162;SDS011;54092;53.088;8.850;2022-12-20T02:04:16;9.20;;;4.57;;
67162;SDS011;54092;53.088;8.850;2022-12-20T02:06:42;9.63;;;5.15;;
67162;SDS011;54092;53.088;8.850;2022-12-20T02:09:07;11.32;;;5.32;;
67162;SDS011;54092;53.088;8.850;2022-12-20T02:12:16;8.82;;;5.43;;
67162;SDS011;54092;53.088;8.850;2022-12-20T02:17:18;11.75;;;5.18;;
67162;SDS011;54092;53.088;8.850;2022-12-20T02:22:59;10.68;;;5.35;;
67162;SDS011;54092;53.088;8.850;2022-12-20T02:30:56;11.35;;;5.78;;
67162;SDS011;54092;53.088;8.850;2022-12-20T02:33:26;8.68;;;5.03;;
67162;SDS011;54092;53.088;8.850;2022-12-20T02:35:52;12.75;;;5.53;;
67162;SDS011;54092;53.088;8.850;2022-12-20T02:38:29;11.57;;;4.57;;
67162;SDS011;54092;53.088;8.850;2022-12-20T02:41:18;8.25;;;5.05;;
67162;SDS011;54092;53.088;8.850;2022-12-20T02:43:55;10.43;;;5.95;;
67162;SDS011;54092;53.088;8.850;2022-12-20T02:46:45;8.15;;;4.60;;
67162;SDS011;54092;53.088;8.850;2022-12-20T02:49:13;9.55;;;5.30;;
67162;SDS011;54092;53.088;8.850;2022-12-20T02:51:42;8.93;;;5.25;;
67162;SDS011;54092;53.088;8.850;2022-12-20T02:54:10;10.13;;;5.18;;
67162;SDS011;54092;53.088;8.850;2022-12-20T02:56:37;9.30;;;4.72;;
67162;SDS011;54092;53.088;8.850;2022-12-20T02:59:11;9.48;;;4.63;;
67162;SDS011;54092;53.088;8.850;2022-12-20T03:01:46;9.50;;;5.00;;
67162;SDS011;54092;53.088;8.850;2022-12-20T03:04:16;12.25;;;5.05;;
67162;SDS011;54092;53.088;8.850;2022-12-20T03:06:59;8.15;;;4.55;;
67162;SDS011;54092;53.088;8.850;2022-12-20T03:09:27;7.93;;;4.57;;
67162;SDS011;54092;53.088;8.850;2022-12-20T03:11:55;8.40;;;4.55;;
67162;SDS011;54092;53.088;8.850;2022-12-20T03:14:20;9.98;;;5.00;;
67162;SDS011;54092;53.088;8.850;2022-12-20T03:16:46;10.43;;;4.72;;
67162;SDS011;54092;53.088;8.850;2022-12-20T03:19:12;9.93;;;4.88;;
67162;SDS011;54092;53.088;8.850;2022-12-20T03:21:37;7.95;;;4.47;;
67162;SDS011;54092;53.088;8.850;2022-12-20T03:24:03;9.45;;;4.60;;
67162;SDS011;54092;53.088;8.850;2022-12-20T03:26:29;9.68;;;5.15;;
67162;SDS011;54092;53.088;8.850;2022-12-20T03:28:54;9.93;;;5.18;;
67162;SDS011;54092;53.088;8.850;2022-12-20T03:31:20;10.55;;;5.20;;
67162;SDS011;54092;53.088;8.850;2022-12-20T03:33:45;8.57;;;4.57;;
67162;SDS011;54092;53.088;8.850;2022-12-20T03:36:11;8.55;;;4.55;;
67162;SDS011;54092;53.088;8.850;2022-12-20T03:38:36;9.82;;;5.03;;
67162;SDS011;54092;53.088;8.850;2022-12-20T03:41:02;8.68;;;4.65;;
67162;SDS011;54092;53.088;8.850;2022-12-20T03:43:27;7.43;;;4.13;;
67162;SDS011;54092;53.088;8.850;2022-12-20T03:45:53;8.55;;;3.72;;
67162;SDS011;54092;53.088;8.850;2022-12-20T03:48:18;9.60;;;4.30;;
67162;SDS011;54092;53.088;8.850;2022-12-20T03:50:44;9.25;;;4.65;;
67162;SDS011;54092;53.088;8.850;2022-12-20T03:53:10;9.30;;;4.93;;
67162;SDS011;54092;53.088;8.850;2022-12-20T03:55:36;7.60;;;4.45;;
67162;SDS011;54092;53.088;8.850;2022-12-20T03:58:01;10.15;;;4.32;;
67162;SDS011;54092;53.088;8.850;2022-12-20T04:00:27;8.88;;;4.82;;
67162;SDS011;54092;53.088;8.850;2022-12-20T04:02:53;8.73;;;4.47;;
67162;SDS011;54092;53.088;8.850;2022-12-20T04:05:18;7.55;;;3.90;;
67162;SDS011;54092;53.088;8.850;2022-12-20T04:07:45;6.90;;;4.07;;
67162;SDS011;54092;53.088;8.850;2022-12-20T04:10:10;8.07;;;4.43;;
67162;SDS011;54092;53.088;8.850;2022-12-20T04:12:36;8.73;;;4.38;;
67162;SDS011;54092;53.088;8.850;2022-12-20T04:15:02;9.07;;;4.80;;
67162;SDS011;54092;53.088;8.850;2022-12-20T04:17:27;8.15;;;4.78;;
67162;SDS011;54092;53.088;8.850;2022-12-20T04:19:53;8.60;;;4.32;;
67162;SDS011;54092;53.088;8.850;2022-12-20T04:22:18;8.43;;;4.28;;
67162;SDS011;54092;53.088;8.850;2022-12-20T04:24:44;9.82;;;4.50;;
67162;SDS011;54092;53.088;8.850;2022-12-20T04:27:10;8.93;;;4.53;;
67162;SDS011;54092;53.088;8.850;2022-12-20T04:29:36;8.25;;;4.57;;
67162;SDS011;54092;53.088;8.850;2022-12-20T04:32:02;10.55;;;4.68;;
67162;SDS011;54092;53.088;8.850;2022-12-20T04:34:28;8.52;;;4.05;;
67162;SDS011;54092;53.088;8.850;2022-12-20T04:36:53;7.07;;;4.15;;
67162;SDS011;54092;53.088;8.850;2022-12-20T04:39:19;11.02;;;5.15;;
67162;SDS011;54092;53.088;8.850;2022-12-20T04:41:44;8.02;;;3.92;;
67162;SDS011;54092;53.088;8.850;2022-12-20T04:44:10;8.68;;;4.90;;
67162;SDS011;54092;53.088;8.850;2022-12-20T04:46:35;9.15;;;4.80;;
67162;SDS011;54092;53.088;8.850;2022-12-20T04:49:01;10.10;;;4.25;;
67162;SDS011;54092;53.088;8.850;2022-12-20T04:51:27;7.30;;;4.40;;
67162;SDS011;54092;53.088;8.850;2022-12-20T04:53:52;10.07;;;5.03;;
67162;SDS011;54092;53.088;8.850;2022-12-20T04:56:19;7.70;;;4.32;;
67162;SDS011;54092;53.088;8.850;2022-12-20T04:58:47;9.30;;;4.88;;
67162;SDS011;54092;53.088;8.850;2022-12-20T05:01:14;9.80;;;4.53;;
67162;SDS011;54092;53.088;8.850;2022-12-20T05:03:40;9.55;;;3.63;;
67162;SDS011;54092;53.088;8.850;2022-12-20T05:06:06;7.05;;;3.90;;
67162;SDS011;54092;53.088;8.850;2022-12-20T05:08:32;8.77;;;4.28;;
67162;SDS011;54092;53.088;8.850;2022-12-20T05:10:58;8.73;;;4.45;;
67162;SDS011;54092;53.088;8.850;2022-12-20T05:13:24;8.27;;;4.10;;
67162;SDS011;54092;53.088;8.850;2022-12-20T05:15:50;7.47;;;4.30;;
67162;SDS011;54092;53.088;8.850;2022-12-20T05:18:17;8.90;;;4.82;;
67162;SDS011;54092;53.088;8.850;2022-12-20T05:20:43;8.68;;;4.25;;
67162;SDS011;54092;53.088;8.850;2022-12-20T05:23:09;8.05;;;4.20;;
67162;SDS011;54092;53.088;8.850;2022-12-20T05:25:53;7.20;;;4.40;;
67162;SDS011;54092;53.088;8.850;2022-12-20T05:28:37;8.18;;;4.35;;
67162;SDS011;54092;53.088;8.850;2022-12-20T05:31:03;7.68;;;4.28;;
67162;SDS011;54092;53.088;8.850;2022-12-20T05:33:29;7.50;;;3.95;;
67162;SDS011;54092;53.088;8.850;2022-12-20T05:35:54;9.55;;;4.88;;
67162;SDS011;54092;53.088;8.850;2022-12-20T05:38:20;9.30;;;4.05;;
67162;SDS011;54092;53.088;8.850;2022-12-20T05:40:47;8.90;;;4.40;;
67162;SDS011;54092;53.088;8.850;2022-12-20T05:43:13;8.73;;;4.40;;
67162;SDS011;54092;53.088;8.850;2022-12-20T05:45:39;11.73;;;4.63;;
67162;SDS011;54092;53.088;8.850;2022-12-20T05:48:08;13.93;;;4.40;;
67162;SDS011;54092;53.088;8.850;2022-12-20T05:50:34;8.98;;;4.97;;
67162;SDS011;54092;53.088;8.850;2022-12-20T05:52:59;9.00;;;5.22;;
67162;SDS011;54092;53.088;8.850;2022-12-20T05:55:25;10.13;;;4.60;;
67162;SDS011;54092;53.088;8.850;2022-12-20T05:57:50;10.60;;;4.65;;
67162;SDS011;54092;53.088;8.850;2022-12-20T06:00:16;11.40;;;4.90;;
67162;SDS011;54092;53.088;8.850;2022-12-20T06:02:42;10.85;;;4.60;;
67162;SDS011;54092;53.088;8.850;2022-12-20T06:05:08;11.52;;;5.30;;
67162;SDS011;54092;53.088;8.850;2022-12-20T06:07:33;9.82;;;5.35;;
67162;SDS011;54092;53.088;8.850;2022-12-20T06:09:59;12.10;;;4.93;;
67162;SDS011;54092;53.088;8.850;2022-12-20T06:12:24;10.68;;;4.45;;
67162;SDS011;54092;53.088;8.850;2022-12-20T06:14:50;7.82;;;4.53;;
67162;SDS011;54092;53.088;8.850;2022-12-20T06:17:16;7.88;;;4.88;;
67162;SDS011;54092;53.088;8.850;2022-12-20T06:19:42;9.40;;;4.82;;
67162;SDS011;54092;53.088;8.850;2022-12-20T06:22:08;10.15;;;5.22;;
67162;SDS011;54092;53.088;8.850;2022-12-20T06:24:34;9.10;;;5.63;;
67162;SDS011;54092;53.088;8.850;2022-12-20T06:27:00;11.35;;;6.15;;
67162;SDS011;54092;53.088;8.850;2022-12-20T06:29:26;10.43;;;5.38;;
67162;SDS011;54092;53.088;8.850;2022-12-20T06:31:52;10.57;;;5.35;;
67162;SDS011;54092;53.088;8.850;2022-12-20T06:34:18;16.48;;;7.95;;
67162;SDS011;54092;53.088;8.850;2022-12-20T06:36:44;15.70;;;6.72;;
67162;SDS011;54092;53.088;8.850;2022-12-20T06:39:10;15.05;;;7.13;;
67162;SDS011;54092;53.088;8.850;2022-12-20T06:41:39;19.60;;;8.60;;
67162;SDS011;54092;53.088;8.850;2022-12-20T06:44:05;10.65;;;5.75;;
67162;SDS011;54092;53.088;8.850;2022-12-20T06:46:31;9.32;;;5.70;;
67162;SDS011;54092;53.088;8.850;2022-12-20T06:48:56;9.98;;;6.15;;
67162;SDS011;54092;53.088;8.850;2022-12-20T06:51:22;9.82;;;5.53;;
67162;SDS011;54092;53.088;8.850;2022-12-20T06:53:48;11.48;;;5.22;;
67162;SDS011;54092;53.088;8.850;2022-12-20T06:56:13;14.00;;;6.55;;
67162;SDS011;54092;53.088;8.850;2022-12-20T06:58:39;11.57;;;6.13;;
67162;SDS011;54092;53.088;8.850;2022-12-20T07:01:04;15.52;;;7.95;;
67162;SDS011;54092;53.088;8.850;2022-12-20T07:03:30;12.10;;;6.13;;
67162;SDS011;54092;53.088;8.850;2022-12-20T07:05:56;26.52;;;9.63;;
67162;SDS011;54092;53.088;8.850;2022-12-20T07:08:22;20.77;;;8.57;;
67162;SDS011;54092;53.088;8.850;2022-12-20T07:10:48;11.73;;;5.60;;
67162;SDS011;54092;53.088;8.850;2022-12-20T07:13:16;21.00;;;7.72;;
67162;SDS011;54092;53.088;8.850;2022-12-20T07:15:42;17.17;;;7.65;;
67162;SDS011;54092;53.088;8.850;2022-12-20T07:18:08;22.45;;;8.90;;
67162;SDS011;54092;53.088;8.850;2022-12-20T07:20:34;23.85;;;8.25;;
67162;SDS011;54092;53.088;8.850;2022-12-20T07:23:00;20.27;;;8.50;;
67162;SDS011;54092;53.088;8.850;2022-12-20T07:25:25;13.07;;;6.20;;
67162;SDS011;54092;53.088;8.850;2022-12-20T07:27:51;11.45;;;6.10;;
67162;SDS011;54092;53.088;8.850;2022-12-20T07:30:17;10.52;;;6.07;;
67162;SDS011;54092;53.088;8.850;2022-12-20T07:32:44;10.18;;;5.13;;
67162;SDS011;54092;53.088;8.850;2022-12-20T07:35:10;9.68;;;5.38;;
67162;SDS011;54092;53.088;8.850;2022-12-20T07:37:37;9.07;;;4.97;;
67162;SDS011;54092;53.088;8.850;2022-12-20T07:40:03;10.57;;;4.80;;
67162;SDS011;54092;53.088;8.850;2022-12-20T07:42:29;9.88;;;6.25;;
67162;SDS011;54092;53.088;8.850;2022-12-20T07:44:54;9.93;;;5.10;;
67162;SDS011;54092;53.088;8.850;2022-12-20T07:47:20;7.97;;;4.40;;
67162;SDS011;54092;53.088;8.850;2022-12-20T07:49:46;11.20;;;5.10;;
67162;SDS011;54092;53.088;8.850;2022-12-20T07:52:13;9.68;;;5.88;;
67162;SDS011;54092;53.088;8.850;2022-12-20T07:54:41;8.43;;;5.20;;
67162;SDS011;54092;53.088;8.850;2022-12-20T07:57:12;19.00;;;9.30;;
67162;SDS011;54092;53.088;8.850;2022-12-20T07:59:52;7.70;;;4.72;;
67162;SDS011;54092;53.088;8.850;2022-12-20T08:02:21;9.60;;;4.82;;
67162;SDS011;54092;53.088;8.850;2022-12-20T08:05:00;10.05;;;5.28;;
67162;SDS011;54092;53.088;8.850;2022-12-20T08:07:27;9.80;;;5.43;;
67162;SDS011;54092;53.088;8.850;2022-12-20T08:09:54;9.77;;;4.85;;
67162;SDS011;54092;53.088;8.850;2022-12-20T08:12:20;7.82;;;4.22;;
67162;SDS011;54092;53.088;8.850;2022-12-20T08:14:46;10.18;;;5.15;;
67162;SDS011;54092;53.088;8.850;2022-12-20T08:17:12;10.75;;;4.78;;
67162;SDS011;54092;53.088;8.850;2022-12-20T08:19:37;7.20;;;4.53;;
67162;SDS011;54092;53.088;8.850;2022-12-20T08:22:03;8.15;;;4.75;;
67162;SDS011;54092;53.088;8.850;2022-12-20T08:24:30;8.88;;;4.95;;
67162;SDS011;54092;53.088;8.850;2022-12-20T08:26:56;7.53;;;4.75;;
67162;SDS011;54092;53.088;8.850;2022-12-20T08:29:22;8.63;;;4.82;;
67162;SDS011;54092;53.088;8.850;2022-12-20T08:31:48;9.07;;;4.95;;
67162;SDS011;54092;53.088;8.850;2022-12-20T08:34:13;8.68;;;4.65;;
67162;SDS011;54092;53.088;8.850;2022-12-20T08:36:39;8.15;;;5.05;;
67162;SDS011;54092;53.088;8.850;2022-12-20T08:39:05;12.88;;;4.85;;
67162;SDS011;54092;53.088;8.850;2022-12-20T08:41:32;11.60;;;5.47;;
67162;SDS011;54092;53.088;8.850;2022-12-20T08:43:59;8.45;;;4.90;;
67162;SDS011;54092;53.088;8.850;2022-12-20T08:46:24;13.68;;;4.63;;
67162;SDS011;54092;53.088;8.850;2022-12-20T08:48:50;8.88;;;4.85;;
67162;SDS011;54092;53.088;8.850;2022-12-20T08:51:16;7.43;;;4.50;;
67162;SDS011;54092;53.088;8.850;2022-12-20T08:53:41;9.38;;;4.57;;
67162;SDS011;54092;53.088;8.850;2022-12-20T08:56:08;10.45;;;4.72;;
67162;SDS011;54092;53.088;8.850;2022-12-20T08:58:36;10.33;;;5.17;;
67162;SDS011;54092;53.088;8.850;2022-12-20T09:01:03;7.82;;;4.88;;
67162;SDS011;54092;53.088;8.850;2022-12-20T09:03:31;9.85;;;5.32;;
67162;SDS011;54092;53.088;8.850;2022-12-20T09:05:57;10.57;;;4.95;;
67162;SDS011;54092;53.088;8.850;2022-12-20T09:08:23;8.90;;;4.65;;
67162;SDS011;54092;53.088;8.850;2022-12-20T09:10:49;10.00;;;5.60;;
67162;SDS011;54092;53.088;8.850;2022-12-20T09:13:15;8.45;;;4.90;;
67162;SDS011;54092;53.088;8.850;2022-12-20T09:15:41;9.63;;;5.32;;
67162;SDS011;54092;53.088;8.850;2022-12-20T09:18:09;9.73;;;5.53;;
67162;SDS011;54092;53.088;8.850;2022-12-20T09:20:34;9.38;;;4.90;;
67162;SDS011;54092;53.088;8.850;2022-12-20T09:23:00;7.95;;;4.57;;
67162;SDS011;54092;53.088;8.850;2022-12-20T09:25:26;8.95;;;3.90;;
67162;SDS011;54092;53.088;8.850;2022-12-20T09:27:52;9.70;;;4.85;;
67162;SDS011;54092;53.088;8.850;2022-12-20T09:30:22;8.98;;;4.30;;
67162;SDS011;54092;53.088;8.850;2022-12-20T09:32:47;9.82;;;4.88;;
67162;SDS011;54092;53.088;8.850;2022-12-20T09:35:13;8.80;;;4.97;;
67162;SDS011;54092;53.088;8.850;2022-12-20T09:37:39;10.00;;;4.50;;
67162;SDS011;54092;53.088;8.850;2022-12-20T09:40:06;7.40;;;4.63;;
67162;SDS011;54092;53.088;8.850;2022-12-20T09:42:34;10.00;;;5.20;;
67162;SDS011;54092;53.088;8.850;2022-12-20T09:45:07;9.13;;;3.80;;
67162;SDS011;54092;53.088;8.850;2022-12-20T09:47:34;8.27;;;4.30;;
67162;SDS011;54092;53.088;8.850;2022-12-20T09:50:02;13.07;;;5.30;;
67162;SDS011;54092;53.088;8.850;2022-12-20T09:52:41;9.32;;;4.60;;
67162;SDS011;54092;53.088;8.850;2022-12-20T09:55:17;9.38;;;4.55;;
67162;SDS011;54092;53.088;8.850;2022-12-20T09:58:10;7.13;;;4.25;;
67162;SDS011;54092;53.088;8.850;2022-12-20T10:00:57;9.05;;;4.22;;
67162;SDS011;54092;53.088;8.850;2022-12-20T10:03:30;7.97;;;4.85;;
67162;SDS011;54092;53.088;8.850;2022-12-20T10:06:03;7.53;;;4.43;;
67162;SDS011;54092;53.088;8.850;2022-12-20T10:08:44;8.65;;;4.65;;
67162;SDS011;54092;53.088;8.850;2022-12-20T10:14:20;7.45;;;4.25;;
67162;SDS011;54092;53.088;8.850;2022-12-20T10:17:14;9.23;;;4.55;;
67162;SDS011;54092;53.088;8.850;2022-12-20T10:19:59;10.30;;;4.50;;
67162;SDS011;54092;53.088;8.850;2022-12-20T10:22:53;8.95;;;4.40;;
67162;SDS011;54092;53.088;8.850;2022-12-20T10:25:29;9.50;;;4.80;;
67162;SDS011;54092;53.088;8.850;2022-12-20T10:27:56;8.15;;;4.55;;
67162;SDS011;54092;53.088;8.850;2022-12-20T10:30:23;8.50;;;4.63;;
67162;SDS011;54092;53.088;8.850;2022-12-20T10:32:51;7.18;;;4.13;;
67162;SDS011;54092;53.088;8.850;2022-12-20T10:37:55;8.07;;;4.43;;
67162;SDS011;54092;53.088;8.850;2022-12-20T10:40:31;7.22;;;4.55;;
67162;SDS011;54092;53.088;8.850;2022-12-20T10:43:02;8.18;;;4.40;;
67162;SDS011;54092;53.088;8.850;2022-12-20T10:45:31;12.48;;;4.32;;
67162;SDS011;54092;53.088;8.850;2022-12-20T10:48:03;7.45;;;4.18;;
67162;SDS011;54092;53.088;8.850;2022-12-20T10:50:31;7.85;;;4.13;;
67162;SDS011;54092;53.088;8.850;2022-12-20T10:53:30;8.68;;;4.43;;
67162;SDS011;54092;53.088;8.850;2022-12-20T10:55:49;8.20;;;4.43;;
67162;SDS011;54092;53.088;8.850;2022-12-20T11:03:15;8.57;;;4.40;;
67162;SDS011;54092;53.088;8.850;2022-12-20T11:05:53;10.18;;;4.63;;
67162;SDS011;54092;53.088;8.850;2022-12-20T11:08:24;7.47;;;4.20;;
67162;SDS011;54092;53.088;8.850;2022-12-20T11:11:00;8.57;;;4.25;;
67162;SDS011;54092;53.088;8.850;2022-12-20T11:13:37;7.72;;;3.97;;
67162;SDS011;54092;53.088;8.850;2022-12-20T11:16:04;8.65;;;4.05;;
67162;SDS011;54092;53.088;8.850;2022-12-20T11:34:51;8.98;;;3.60;;
67162;SDS011;54092;53.088;8.850;2022-12-20T11:37:36;6.72;;;3.83;;
67162;SDS011;54092;53.088;8.850;2022-12-20T11:40:20;8.35;;;3.97;;
67162;SDS011;54092;53.088;8.850;2022-12-20T11:46:15;8.88;;;4.25;;
67162;SDS011;54092;53.088;8.850;2022-12-20T11:51:55;8.85;;;4.50;;
67162;SDS011;54092;53.088;8.850;2022-12-20T11:54:55;10.90;;;4.40;;
67162;SDS011;54092;53.088;8.850;2022-12-20T11:57:57;7.85;;;4.00;;
67162;SDS011;54092;53.088;8.850;2022-12-20T12:00:28;7.28;;;4.22;;
67162;SDS011;54092;53.088;8.850;2022-12-20T12:03:10;7.40;;;4.13;;
67162;SDS011;54092;53.088;8.850;2022-12-20T12:05:50;7.70;;;4.85;;
67162;SDS011;54092;53.088;8.850;2022-12-20T12:08:20;13.05;;;4.72;;
67162;SDS011;54092;53.088;8.850;2022-12-20T12:11:03;9.18;;;4.68;;
67162;SDS011;54092;53.088;8.850;2022-12-20T12:13:36;11.63;;;5.68;;
67162;SDS011;54092;53.088;8.850;2022-12-20T12:18:33;17.33;;;14.20;;
67162;SDS011;54092;53.088;8.850;2022-12-20T12:21:02;11.52;;;6.68;;
67162;SDS011;54092;53.088;8.850;2022-12-20T12:26:45;11.32;;;6.50;;
67162;SDS011;54092;53.088;8.850;2022-12-20T12:29:11;11.90;;;6.60;;
67162;SDS011;54092;53.088;8.850;2022-12-20T12:31:44;8.88;;;5.47;;
67162;SDS011;54092;53.088;8.850;2022-12-20T12:39:43;9.40;;;5.88;;
67162;SDS011;54092;53.088;8.850;2022-12-20T12:44:58;11.75;;;4.95;;
67162;SDS011;54092;53.088;8.850;2022-12-20T12:50:32;11.40;;;5.13;;
67162;SDS011;54092;53.088;8.850;2022-12-20T12:55:44;8.57;;;4.60;;
67162;SDS011;54092;53.088;8.850;2022-12-20T13:03:36;9.60;;;5.30;;
67162;SDS011;54092;53.088;8.850;2022-12-20T13:11:29;11.52;;;5.10;;
67162;SDS011;54092;53.088;8.850;2022-12-20T13:16:50;12.07;;;5.45;;
67162;SDS011;54092;53.088;8.850;2022-12-20T13:19:38;13.02;;;7.05;;
67162;SDS011;54092;53.088;8.850;2022-12-20T13:40:57;9.00;;;5.25;;
67162;SDS011;54092;53.088;8.850;2022-12-20T13:43:24;12.13;;;5.47;;
67162;SDS011;54092;53.088;8.850;2022-12-20T13:51:10;10.65;;;5.05;;
67162;SDS011;54092;53.088;8.850;2022-12-20T13:53:59;10.63;;;5.22;;
67162;SDS011;54092;53.088;8.850;2022-12-20T13:58:56;10.07;;;5.47;;
67162;SDS011;54092;53.088;8.850;2022-12-20T14:01:23;9.95;;;5.25;;
67162;SDS011;54092;53.088;8.850;2022-12-20T14:03:50;11.48;;;6.00;;
67162;SDS011;54092;53.088;8.850;2022-12-20T14:06:17;10.82;;;5.60;;
67162;SDS011;54092;53.088;8.850;2022-12-20T14:08:48;13.73;;;5.85;;
67162;SDS011;54092;53.088;8.850;2022-12-20T14:11:19;11.27;;;5.72;;
67162;SDS011;54092;53.088;8.850;2022-12-20T14:13:57;12.82;;;5.45;;
67162;SDS011;54092;53.088;8.850;2022-12-20T14:16:25;13.27;;;5.97;;
67162;SDS011;54092;53.088;8.850;2022-12-20T14:21:24;13.57;;;5.68;;
67162;SDS011;54092;53.088;8.850;2022-12-20T14:23:51;10.10;;;5.53;;
67162;SDS011;54092;53.088;8.850;2022-12-20T14:26:29;11.70;;;5.63;;
67162;SDS011;54092;53.088;8.850;2022-12-20T14:28:58;10.15;;;5.25;;
67162;SDS011;54092;53.088;8.850;2022-12-20T14:31:29;12.00;;;5.80;;
67162;SDS011;54092;53.088;8.850;2022-12-20T14:36:36;9.00;;;5.10;;
67162;SDS011;54092;53.088;8.850;2022-12-20T14:41:58;9.90;;;5.28;;
67162;SDS011;54092;53.088;8.850;2022-12-20T14:44:26;9.93;;;5.50;;
67162;SDS011;54092;53.088;8.850;2022-12-20T14:46:59;14.40;;;8.32;;
67162;SDS011;54092;53.088;8.850;2022-12-20T14:49:28;10.82;;;5.68;;
67162;SDS011;54092;53.088;8.850;2022-12-20T14:52:05;10.80;;;5.38;;
67162;SDS011;54092;53.088;8.850;2022-12-20T14:54:43;12.27;;;5.25;;
67162;SDS011;54092;53.088;8.850;2022-12-20T14:57:21;11.18;;;7.20;;
67162;SDS011;54092;53.088;8.850;2022-12-20T15:00:00;9.57;;;5.38;;
67162;SDS011;54092;53.088;8.850;2022-12-20T15:02:32;10.80;;;5.53;;
67162;SDS011;54092;53.088;8.850;2022-12-20T15:13:36;11.07;;;6.32;;
67162;SDS011;54092;53.088;8.850;2022-12-20T15:16:24;13.00;;;6.70;;
67162;SDS011;54092;53.088;8.850;2022-12-20T15:18:53;12.35;;;6.82;;
67162;SDS011;54092;53.088;8.850;2022-12-20T15:21:26;10.63;;;5.55;;
67162;SDS011;54092;53.088;8.850;2022-12-20T15:24:17;12.20;;;5.55;;
67162;SDS011;54092;53.088;8.850;2022-12-20T15:26:45;8.50;;;5.05;;
67162;SDS011;54092;53.088;8.850;2022-12-20T15:29:16;8.13;;;5.45;;
67162;SDS011;54092;53.088;8.850;2022-12-20T15:31:42;10.48;;;6.82;;
67162;SDS011;54092;53.088;8.850;2022-12-20T15:34:26;11.75;;;6.43;;
67162;SDS011;54092;53.088;8.850;2022-12-20T15:36:56;13.25;;;7.93;;
67162;SDS011;54092;53.088;8.850;2022-12-20T15:39:24;11.10;;;6.20;;
67162;SDS011;54092;53.088;8.850;2022-12-20T15:41:50;12.45;;;5.78;;
67162;SDS011;54092;53.088;8.850;2022-12-20T15:44:18;12.40;;;6.00;;
67162;SDS011;54092;53.088;8.850;2022-12-20T15:46:49;11.10;;;7.15;;
67162;SDS011;54092;53.088;8.850;2022-12-20T15:49:16;11.38;;;6.57;;
67162;SDS011;54092;53.088;8.850;2022-12-20T15:51:45;9.45;;;5.82;;
67162;SDS011;54092;53.088;8.850;2022-12-20T15:54:15;12.80;;;5.95;;
67162;SDS011;54092;53.088;8.850;2022-12-20T15:56:51;11.60;;;6.97;;
67162;SDS011;54092;53.088;8.850;2022-12-20T15:59:21;10.55;;;6.25;;
67162;SDS011;54092;53.088;8.850;2022-12-20T16:01:47;11.30;;;6.18;;
67162;SDS011;54092;53.088;8.850;2022-12-20T16:04:16;11.70;;;6.45;;
67162;SDS011;54092;53.088;8.850;2022-12-20T16:06:44;9.25;;;6.18;;
67162;SDS011;54092;53.088;8.850;2022-12-20T16:09:11;12.77;;;5.90;;
67162;SDS011;54092;53.088;8.850;2022-12-20T16:11:37;14.13;;;6.10;;
67162;SDS011;54092;53.088;8.850;2022-12-20T16:14:03;9.82;;;6.15;;
67162;SDS011;54092;53.088;8.850;2022-12-20T16:16:30;9.32;;;5.93;;
67162;SDS011;54092;53.088;8.850;2022-12-20T16:18:57;11.35;;;6.97;;
67162;SDS011;54092;53.088;8.850;2022-12-20T16:21:24;19.52;;;10.85;;
67162;SDS011;54092;53.088;8.850;2022-12-20T16:23:50;15.38;;;10.45;;
67162;SDS011;54092;53.088;8.850;2022-12-20T16:26:18;15.80;;;7.07;;
67162;SDS011;54092;53.088;8.850;2022-12-20T16:28:45;12.32;;;6.72;;
67162;SDS011;54092;53.088;8.850;2022-12-20T16:31:31;9.95;;;6.65;;
67162;SDS011;54092;53.088;8.850;2022-12-20T16:33:58;10.88;;;7.05;;
67162;SDS011;54092;53.088;8.850;2022-12-20T16:36:27;15.10;;;8.35;;
67162;SDS011;54092;53.088;8.850;2022-12-20T16:38:53;12.50;;;7.18;;
67162;SDS011;54092;53.088;8.850;2022-12-20T16:41:20;11.57;;;6.05;;
67162;SDS011;54092;53.088;8.850;2022-12-20T16:43:48;13.43;;;7.30;;
67162;SDS011;54092;53.088;8.850;2022-12-20T16:46:15;13.60;;;7.28;;
67162;SDS011;54092;53.088;8.850;2022-12-20T16:48:43;13.55;;;7.65;;
67162;SDS011;54092;53.088;8.850;2022-12-20T16:51:54;14.07;;;8.02;;
67162;SDS011;54092;53.088;8.850;2022-12-20T16:53:59;14.82;;;8.13;;
67162;SDS011;54092;53.088;8.850;2022-12-20T16:56:27;12.70;;;6.93;;
67162;SDS011;54092;53.088;8.850;2022-12-20T16:58:54;15.43;;;9.05;;
67162;SDS011;54092;53.088;8.850;2022-12-20T17:01:22;14.88;;;8.00;;